sensor_id;sensor_type;location;lat;lon;timestamp;P1;durP1;ratioP1;P2;durP2;ratioP2
23596;SDS011;40226;50.874;4.394;2023-09-08T00:01:49;17.05;;;10.38;;
23596;SDS011;40226;50.874;4.394;2023-09-08T00:04:14;12.05;;;9.60;;
23596;SDS011;40226;50.874;4.394;2023-09-08T00:06:40;19.63;;;10.88;;
23596;SDS011;40226;50.874;4.394;2023-09-08T00:09:06;15.98;;;10.25;;
23596;SDS011;40226;50.874;4.394;2023-09-08T00:11:33;14.85;;;9.70;;
23596;SDS011;40226;50.874;4.394;2023-09-08T00:13:59;15.77;;;10.18;;
23596;SDS011;40226;50.874;4.394;2023-09-08T00:16:24;18.40;;;10.15;;
23596;SDS011;40226;50.874;4.394;2023-09-08T00:18:50;13.18;;;10.20;;
23596;SDS011;40226;50.874;4.394;2023-09-08T00:21:16;15.27;;;10.75;;
23596;SDS011;40226;50.874;4.394;2023-09-08T00:23:41;12.73;;;10.48;;
23596;SDS011;40226;50.874;4.394;2023-09-08T00:26:07;17.20;;;10.45;;
23596;SDS011;40226;50.874;4.394;2023-09-08T00:28:32;13.27;;;9.50;;
23596;SDS011;40226;50.874;4.394;2023-09-08T00:30:58;13.07;;;9.68;;
23596;SDS011;40226;50.874;4.394;2023-09-08T00:33:25;16.42;;;9.88;;
23596;SDS011;40226;50.874;4.394;2023-09-08T00:35:51;12.85;;;9.90;;
23596;SDS011;40226;50.874;4.394;2023-09-08T00:38:18;17.98;;;10.07;;
23596;SDS011;40226;50.874;4.394;2023-09-08T00:40:44;12.57;;;9.57;;
23596;SDS011;40226;50.874;4.394;2023-09-08T00:43:10;12.43;;;10.00;;
23596;SDS011;40226;50.874;4.394;2023-09-08T00:45:37;11.27;;;9.50;;
23596;SDS011;40226;50.874;4.394;2023-09-08T00:48:06;13.25;;;9.95;;
23596;SDS011;40226;50.874;4.394;2023-09-08T00:50:33;14.77;;;9.32;;
23596;SDS011;40226;50.874;4.394;2023-09-08T00:52:59;16.17;;;9.65;;
23596;SDS011;40226;50.874;4.394;2023-09-08T00:55:25;14.43;;;10.13;;
23596;SDS011;40226;50.874;4.394;2023-09-08T00:57:51;13.60;;;9.65;;
23596;SDS011;40226;50.874;4.394;2023-09-08T01:00:17;14.27;;;10.05;;
23596;SDS011;40226;50.874;4.394;2023-09-08T01:02:42;13.60;;;9.80;;
23596;SDS011;40226;50.874;4.394;2023-09-08T01:05:10;13.45;;;9.50;;
23596;SDS011;40226;50.874;4.394;2023-09-08T01:07:36;15.10;;;9.85;;
23596;SDS011;40226;50.874;4.394;2023-09-08T01:10:02;16.35;;;9.95;;
23596;SDS011;40226;50.874;4.394;2023-09-08T01:12:29;14.30;;;9.77;;
23596;SDS011;40226;50.874;4.394;2023-09-08T01:14:55;14.60;;;10.07;;
23596;SDS011;40226;50.874;4.394;2023-09-08T01:17:20;13.70;;;9.70;;
23596;SDS011;40226;50.874;4.394;2023-09-08T01:19:46;12.32;;;9.93;;
23596;SDS011;40226;50.874;4.394;2023-09-08T01:28:01;14.07;;;10.25;;
23596;SDS011;40226;50.874;4.394;2023-09-08T01:30:28;17.02;;;10.40;;
23596;SDS011;40226;50.874;4.394;2023-09-08T01:32:58;16.60;;;10.55;;
23596;SDS011;40226;50.874;4.394;2023-09-08T01:35:24;13.65;;;9.48;;
23596;SDS011;40226;50.874;4.394;2023-09-08T01:37:50;16.42;;;10.90;;
23596;SDS011;40226;50.874;4.394;2023-09-08T01:40:15;14.45;;;10.40;;
23596;SDS011;40226;50.874;4.394;2023-09-08T01:42:41;13.05;;;9.93;;
23596;SDS011;40226;50.874;4.394;2023-09-08T01:45:07;12.40;;;10.95;;
23596;SDS011;40226;50.874;4.394;2023-09-08T01:47:34;17.90;;;10.70;;
23596;SDS011;40226;50.874;4.394;2023-09-08T01:50:00;14.48;;;10.88;;
23596;SDS011;40226;50.874;4.394;2023-09-08T01:52:26;15.30;;;10.80;;
23596;SDS011;40226;50.874;4.394;2023-09-08T01:54:52;15.73;;;10.65;;
23596;SDS011;40226;50.874;4.394;2023-09-08T01:57:17;16.30;;;10.75;;
23596;SDS011;40226;50.874;4.394;2023-09-08T01:59:43;14.23;;;10.88;;
23596;SDS011;40226;50.874;4.394;2023-09-08T02:02:10;13.48;;;10.75;;
23596;SDS011;40226;50.874;4.394;2023-09-08T02:04:36;14.77;;;11.25;;
23596;SDS011;40226;50.874;4.394;2023-09-08T02:07:01;19.38;;;10.90;;
23596;SDS011;40226;50.874;4.394;2023-09-08T02:09:32;13.68;;;10.88;;
23596;SDS011;40226;50.874;4.394;2023-09-08T02:11:58;14.02;;;11.25;;
23596;SDS011;40226;50.874;4.394;2023-09-08T02:14:25;16.20;;;11.20;;
23596;SDS011;40226;50.874;4.394;2023-09-08T02:16:50;17.13;;;11.45;;
23596;SDS011;40226;50.874;4.394;2023-09-08T02:19:16;16.83;;;10.60;;
23596;SDS011;40226;50.874;4.394;2023-09-08T02:21:41;14.70;;;10.88;;
23596;SDS011;40226;50.874;4.394;2023-09-08T02:24:07;14.45;;;10.75;;
23596;SDS011;40226;50.874;4.394;2023-09-08T02:26:33;16.20;;;10.85;;
23596;SDS011;40226;50.874;4.394;2023-09-08T02:28:59;13.48;;;10.70;;
23596;SDS011;40226;50.874;4.394;2023-09-08T02:31:26;17.73;;;11.57;;
23596;SDS011;40226;50.874;4.394;2023-09-08T02:33:52;16.27;;;11.68;;
23596;SDS011;40226;50.874;4.394;2023-09-08T02:36:17;14.57;;;11.35;;
23596;SDS011;40226;50.874;4.394;2023-09-08T02:38:50;15.30;;;11.63;;
23596;SDS011;40226;50.874;4.394;2023-09-08T02:41:19;17.75;;;11.85;;
23596;SDS011;40226;50.874;4.394;2023-09-08T02:43:45;18.38;;;11.80;;
23596;SDS011;40226;50.874;4.394;2023-09-08T02:46:11;16.38;;;11.65;;
23596;SDS011;40226;50.874;4.394;2023-09-08T02:48:37;14.30;;;11.68;;
23596;SDS011;40226;50.874;4.394;2023-09-08T02:51:03;16.40;;;10.73;;
23596;SDS011;40226;50.874;4.394;2023-09-08T02:53:28;17.52;;;11.20;;
23596;SDS011;40226;50.874;4.394;2023-09-08T02:55:54;13.23;;;11.23;;
23596;SDS011;40226;50.874;4.394;2023-09-08T02:58:20;17.40;;;11.55;;
23596;SDS011;40226;50.874;4.394;2023-09-08T03:00:46;15.40;;;11.77;;
23596;SDS011;40226;50.874;4.394;2023-09-08T03:03:12;16.00;;;10.95;;
23596;SDS011;40226;50.874;4.394;2023-09-08T03:05:37;14.50;;;10.88;;
23596;SDS011;40226;50.874;4.394;2023-09-08T03:08:03;15.68;;;11.60;;
23596;SDS011;40226;50.874;4.394;2023-09-08T03:10:30;14.10;;;11.18;;
23596;SDS011;40226;50.874;4.394;2023-09-08T03:12:59;19.58;;;12.77;;
23596;SDS011;40226;50.874;4.394;2023-09-08T03:15:28;18.85;;;10.80;;
23596;SDS011;40226;50.874;4.394;2023-09-08T03:17:54;16.95;;;11.45;;
23596;SDS011;40226;50.874;4.394;2023-09-08T03:20:20;13.38;;;11.65;;
23596;SDS011;40226;50.874;4.394;2023-09-08T03:22:45;14.75;;;11.60;;
23596;SDS011;40226;50.874;4.394;2023-09-08T03:25:13;14.15;;;11.85;;
23596;SDS011;40226;50.874;4.394;2023-09-08T03:27:39;15.93;;;10.77;;
23596;SDS011;40226;50.874;4.394;2023-09-08T03:30:05;17.58;;;12.63;;
23596;SDS011;40226;50.874;4.394;2023-09-08T03:32:31;15.43;;;11.73;;
23596;SDS011;40226;50.874;4.394;2023-09-08T03:34:57;17.38;;;12.30;;
23596;SDS011;40226;50.874;4.394;2023-09-08T03:37:23;21.38;;;12.45;;
23596;SDS011;40226;50.874;4.394;2023-09-08T03:39:50;19.63;;;11.45;;
23596;SDS011;40226;50.874;4.394;2023-09-08T03:42:15;17.17;;;12.60;;
23596;SDS011;40226;50.874;4.394;2023-09-08T03:44:41;16.35;;;12.43;;
23596;SDS011;40226;50.874;4.394;2023-09-08T03:47:06;15.00;;;12.15;;
23596;SDS011;40226;50.874;4.394;2023-09-08T03:49:32;16.48;;;11.52;;
23596;SDS011;40226;50.874;4.394;2023-09-08T03:51:58;16.45;;;12.57;;
23596;SDS011;40226;50.874;4.394;2023-09-08T03:54:23;16.17;;;12.02;;
23596;SDS011;40226;50.874;4.394;2023-09-08T03:56:49;16.92;;;12.20;;
23596;SDS011;40226;50.874;4.394;2023-09-08T03:59:15;17.88;;;13.35;;
23596;SDS011;40226;50.874;4.394;2023-09-08T04:01:40;16.83;;;12.93;;
23596;SDS011;40226;50.874;4.394;2023-09-08T04:04:06;16.27;;;12.15;;
23596;SDS011;40226;50.874;4.394;2023-09-08T04:06:32;15.98;;;12.07;;
23596;SDS011;40226;50.874;4.394;2023-09-08T04:08:57;16.40;;;12.50;;
23596;SDS011;40226;50.874;4.394;2023-09-08T04:11:23;15.02;;;12.23;;
23596;SDS011;40226;50.874;4.394;2023-09-08T04:13:49;20.02;;;13.07;;
23596;SDS011;40226;50.874;4.394;2023-09-08T04:16:14;16.33;;;12.55;;
23596;SDS011;40226;50.874;4.394;2023-09-08T04:18:40;17.38;;;11.82;;
23596;SDS011;40226;50.874;4.394;2023-09-08T04:21:06;17.80;;;12.57;;
23596;SDS011;40226;50.874;4.394;2023-09-08T04:23:32;17.13;;;12.20;;
23596;SDS011;40226;50.874;4.394;2023-09-08T04:25:58;19.90;;;12.85;;
23596;SDS011;40226;50.874;4.394;2023-09-08T04:28:24;17.63;;;12.18;;
23596;SDS011;40226;50.874;4.394;2023-09-08T04:30:50;21.95;;;13.63;;
23596;SDS011;40226;50.874;4.394;2023-09-08T04:33:15;22.75;;;13.70;;
23596;SDS011;40226;50.874;4.394;2023-09-08T04:35:41;18.00;;;13.13;;
23596;SDS011;40226;50.874;4.394;2023-09-08T04:38:06;17.40;;;12.88;;
23596;SDS011;40226;50.874;4.394;2023-09-08T04:40:32;26.33;;;17.85;;
23596;SDS011;40226;50.874;4.394;2023-09-08T04:42:58;44.85;;;34.85;;
23596;SDS011;40226;50.874;4.394;2023-09-08T04:45:24;38.92;;;27.60;;
23596;SDS011;40226;50.874;4.394;2023-09-08T04:47:50;28.80;;;20.25;;
23596;SDS011;40226;50.874;4.394;2023-09-08T04:50:15;24.05;;;16.33;;
23596;SDS011;40226;50.874;4.394;2023-09-08T04:52:41;25.95;;;15.95;;
23596;SDS011;40226;50.874;4.394;2023-09-08T04:55:07;23.90;;;15.27;;
23596;SDS011;40226;50.874;4.394;2023-09-08T04:57:32;24.38;;;13.98;;
23596;SDS011;40226;50.874;4.394;2023-09-08T04:59:58;21.10;;;14.15;;
23596;SDS011;40226;50.874;4.394;2023-09-08T05:02:24;24.00;;;14.45;;
23596;SDS011;40226;50.874;4.394;2023-09-08T05:04:49;24.27;;;14.27;;
23596;SDS011;40226;50.874;4.394;2023-09-08T05:07:15;23.27;;;14.13;;
23596;SDS011;40226;50.874;4.394;2023-09-08T05:09:41;21.88;;;14.43;;
23596;SDS011;40226;50.874;4.394;2023-09-08T05:12:06;21.63;;;13.95;;
23596;SDS011;40226;50.874;4.394;2023-09-08T05:14:32;22.98;;;14.45;;
23596;SDS011;40226;50.874;4.394;2023-09-08T05:16:58;22.65;;;14.32;;
23596;SDS011;40226;50.874;4.394;2023-09-08T05:19:23;25.27;;;14.60;;
23596;SDS011;40226;50.874;4.394;2023-09-08T05:21:53;26.75;;;15.15;;
23596;SDS011;40226;50.874;4.394;2023-09-08T05:24:20;22.92;;;13.63;;
23596;SDS011;40226;50.874;4.394;2023-09-08T05:26:46;26.60;;;15.10;;
23596;SDS011;40226;50.874;4.394;2023-09-08T05:29:12;22.52;;;14.98;;
23596;SDS011;40226;50.874;4.394;2023-09-08T05:31:37;24.27;;;15.27;;
23596;SDS011;40226;50.874;4.394;2023-09-08T05:34:03;29.58;;;15.20;;
23596;SDS011;40226;50.874;4.394;2023-09-08T05:36:29;28.38;;;15.55;;
23596;SDS011;40226;50.874;4.394;2023-09-08T05:38:56;26.35;;;15.75;;
23596;SDS011;40226;50.874;4.394;2023-09-08T05:41:21;22.55;;;14.40;;
23596;SDS011;40226;50.874;4.394;2023-09-08T05:43:47;23.73;;;13.68;;
23596;SDS011;40226;50.874;4.394;2023-09-08T05:46:13;24.45;;;15.00;;
23596;SDS011;40226;50.874;4.394;2023-09-08T05:48:38;25.27;;;15.43;;
23596;SDS011;40226;50.874;4.394;2023-09-08T05:51:04;22.83;;;16.02;;
23596;SDS011;40226;50.874;4.394;2023-09-08T05:53:31;24.25;;;15.70;;
23596;SDS011;40226;50.874;4.394;2023-09-08T05:55:58;22.73;;;15.07;;
23596;SDS011;40226;50.874;4.394;2023-09-08T05:58:23;23.92;;;15.73;;
23596;SDS011;40226;50.874;4.394;2023-09-08T06:00:52;19.63;;;14.18;;
23596;SDS011;40226;50.874;4.394;2023-09-08T06:03:20;21.45;;;14.60;;
23596;SDS011;40226;50.874;4.394;2023-09-08T06:05:46;20.17;;;15.13;;
23596;SDS011;40226;50.874;4.394;2023-09-08T06:08:12;22.88;;;14.52;;
23596;SDS011;40226;50.874;4.394;2023-09-08T06:10:37;24.83;;;14.65;;
23596;SDS011;40226;50.874;4.394;2023-09-08T06:13:03;24.63;;;14.23;;
23596;SDS011;40226;50.874;4.394;2023-09-08T06:15:30;19.33;;;12.70;;
23596;SDS011;40226;50.874;4.394;2023-09-08T06:17:59;22.38;;;13.38;;
23596;SDS011;40226;50.874;4.394;2023-09-08T06:20:24;20.77;;;13.90;;
23596;SDS011;40226;50.874;4.394;2023-09-08T06:22:51;22.20;;;14.30;;
23596;SDS011;40226;50.874;4.394;2023-09-08T06:25:17;25.80;;;14.25;;
23596;SDS011;40226;50.874;4.394;2023-09-08T06:27:42;23.15;;;14.18;;
23596;SDS011;40226;50.874;4.394;2023-09-08T06:30:08;18.77;;;13.23;;
23596;SDS011;40226;50.874;4.394;2023-09-08T06:32:34;23.45;;;14.35;;
23596;SDS011;40226;50.874;4.394;2023-09-08T06:35:00;22.52;;;13.48;;
23596;SDS011;40226;50.874;4.394;2023-09-08T06:37:26;20.98;;;13.35;;
23596;SDS011;40226;50.874;4.394;2023-09-08T06:39:53;20.20;;;13.32;;
23596;SDS011;40226;50.874;4.394;2023-09-08T06:42:19;22.08;;;12.90;;
23596;SDS011;40226;50.874;4.394;2023-09-08T06:44:45;22.58;;;13.80;;
23596;SDS011;40226;50.874;4.394;2023-09-08T06:47:10;20.88;;;13.57;;
23596;SDS011;40226;50.874;4.394;2023-09-08T06:49:36;17.90;;;12.98;;
23596;SDS011;40226;50.874;4.394;2023-09-08T06:52:02;22.25;;;12.70;;
23596;SDS011;40226;50.874;4.394;2023-09-08T06:54:27;21.65;;;11.85;;
23596;SDS011;40226;50.874;4.394;2023-09-08T06:56:53;18.35;;;12.13;;
23596;SDS011;40226;50.874;4.394;2023-09-08T06:59:18;20.55;;;11.93;;
23596;SDS011;40226;50.874;4.394;2023-09-08T07:01:44;17.73;;;11.23;;
23596;SDS011;40226;50.874;4.394;2023-09-08T07:04:10;17.48;;;11.23;;
23596;SDS011;40226;50.874;4.394;2023-09-08T07:06:36;18.08;;;11.82;;
23596;SDS011;40226;50.874;4.394;2023-09-08T07:09:03;22.98;;;11.23;;
23596;SDS011;40226;50.874;4.394;2023-09-08T07:11:29;21.00;;;11.75;;
23596;SDS011;40226;50.874;4.394;2023-09-08T07:13:55;21.67;;;11.98;;
23596;SDS011;40226;50.874;4.394;2023-09-08T07:16:21;18.05;;;11.93;;
23596;SDS011;40226;50.874;4.394;2023-09-08T07:18:46;18.98;;;11.80;;
23596;SDS011;40226;50.874;4.394;2023-09-08T07:21:12;20.67;;;11.50;;
23596;SDS011;40226;50.874;4.394;2023-09-08T07:23:38;22.08;;;10.95;;
23596;SDS011;40226;50.874;4.394;2023-09-08T07:26:03;20.23;;;11.48;;
23596;SDS011;40226;50.874;4.394;2023-09-08T07:28:29;20.13;;;10.93;;
23596;SDS011;40226;50.874;4.394;2023-09-08T07:31:00;18.90;;;11.25;;
23596;SDS011;40226;50.874;4.394;2023-09-08T07:33:27;15.75;;;10.88;;
23596;SDS011;40226;50.874;4.394;2023-09-08T07:35:53;22.05;;;10.88;;
23596;SDS011;40226;50.874;4.394;2023-09-08T07:38:19;18.90;;;11.05;;
23596;SDS011;40226;50.874;4.394;2023-09-08T07:40:44;14.57;;;10.93;;
23596;SDS011;40226;50.874;4.394;2023-09-08T07:43:10;17.80;;;11.00;;
23596;SDS011;40226;50.874;4.394;2023-09-08T07:45:35;16.10;;;10.82;;
23596;SDS011;40226;50.874;4.394;2023-09-08T07:48:01;15.38;;;10.30;;
23596;SDS011;40226;50.874;4.394;2023-09-08T07:50:28;14.20;;;10.52;;
23596;SDS011;40226;50.874;4.394;2023-09-08T07:52:54;17.95;;;10.27;;
23596;SDS011;40226;50.874;4.394;2023-09-08T07:55:21;20.00;;;10.73;;
23596;SDS011;40226;50.874;4.394;2023-09-08T07:57:49;17.30;;;10.15;;
23596;SDS011;40226;50.874;4.394;2023-09-08T08:00:15;22.17;;;11.23;;
23596;SDS011;40226;50.874;4.394;2023-09-08T08:02:43;18.75;;;11.55;;
23596;SDS011;40226;50.874;4.394;2023-09-08T08:05:11;17.70;;;11.20;;
23596;SDS011;40226;50.874;4.394;2023-09-08T08:07:37;25.27;;;11.82;;
23596;SDS011;40226;50.874;4.394;2023-09-08T08:10:04;21.05;;;11.80;;
23596;SDS011;40226;50.874;4.394;2023-09-08T08:12:30;19.90;;;11.85;;
23596;SDS011;40226;50.874;4.394;2023-09-08T08:14:56;24.38;;;12.38;;
23596;SDS011;40226;50.874;4.394;2023-09-08T08:17:21;17.00;;;11.10;;
23596;SDS011;40226;50.874;4.394;2023-09-08T08:19:47;22.48;;;12.25;;
23596;SDS011;40226;50.874;4.394;2023-09-08T08:22:13;20.73;;;12.13;;
23596;SDS011;40226;50.874;4.394;2023-09-08T08:24:38;18.08;;;11.20;;
23596;SDS011;40226;50.874;4.394;2023-09-08T08:27:04;17.75;;;11.63;;
23596;SDS011;40226;50.874;4.394;2023-09-08T08:29:30;21.67;;;12.13;;
23596;SDS011;40226;50.874;4.394;2023-09-08T08:31:56;20.02;;;11.80;;
23596;SDS011;40226;50.874;4.394;2023-09-08T08:34:21;22.63;;;11.73;;
23596;SDS011;40226;50.874;4.394;2023-09-08T08:36:47;26.42;;;12.93;;
23596;SDS011;40226;50.874;4.394;2023-09-08T08:39:13;18.95;;;13.07;;
23596;SDS011;40226;50.874;4.394;2023-09-08T08:41:40;21.95;;;11.77;;
23596;SDS011;40226;50.874;4.394;2023-09-08T08:44:06;22.60;;;12.63;;
23596;SDS011;40226;50.874;4.394;2023-09-08T08:46:33;22.50;;;11.60;;
23596;SDS011;40226;50.874;4.394;2023-09-08T08:49:01;24.20;;;12.32;;
23596;SDS011;40226;50.874;4.394;2023-09-08T08:51:28;19.75;;;12.18;;
23596;SDS011;40226;50.874;4.394;2023-09-08T08:53:56;18.50;;;12.00;;
23596;SDS011;40226;50.874;4.394;2023-09-08T08:56:22;21.08;;;11.60;;
23596;SDS011;40226;50.874;4.394;2023-09-08T08:58:48;25.10;;;11.18;;
23596;SDS011;40226;50.874;4.394;2023-09-08T09:01:18;23.70;;;11.23;;
23596;SDS011;40226;50.874;4.394;2023-09-08T09:03:47;22.15;;;11.23;;
23596;SDS011;40226;50.874;4.394;2023-09-08T09:06:14;17.70;;;10.63;;
23596;SDS011;40226;50.874;4.394;2023-09-08T09:08:42;18.67;;;10.27;;
23596;SDS011;40226;50.874;4.394;2023-09-08T09:11:09;20.08;;;10.50;;
23596;SDS011;40226;50.874;4.394;2023-09-08T09:13:35;20.38;;;10.63;;
23596;SDS011;40226;50.874;4.394;2023-09-08T09:16:01;24.38;;;10.43;;
23596;SDS011;40226;50.874;4.394;2023-09-08T09:18:28;16.02;;;8.95;;
23596;SDS011;40226;50.874;4.394;2023-09-08T09:20:56;17.27;;;9.57;;
23596;SDS011;40226;50.874;4.394;2023-09-08T09:23:29;17.42;;;9.90;;
23596;SDS011;40226;50.874;4.394;2023-09-08T09:25:56;15.65;;;9.95;;
23596;SDS011;40226;50.874;4.394;2023-09-08T09:28:22;18.92;;;10.63;;
23596;SDS011;40226;50.874;4.394;2023-09-08T09:30:48;22.88;;;10.55;;
23596;SDS011;40226;50.874;4.394;2023-09-08T09:33:16;17.88;;;10.73;;
23596;SDS011;40226;50.874;4.394;2023-09-08T09:35:43;19.63;;;10.68;;
23596;SDS011;40226;50.874;4.394;2023-09-08T09:38:10;18.00;;;10.25;;
23596;SDS011;40226;50.874;4.394;2023-09-08T09:40:36;16.90;;;10.32;;
23596;SDS011;40226;50.874;4.394;2023-09-08T09:43:03;15.68;;;9.68;;
23596;SDS011;40226;50.874;4.394;2023-09-08T09:45:30;16.42;;;9.55;;
23596;SDS011;40226;50.874;4.394;2023-09-08T09:47:57;18.67;;;9.88;;
23596;SDS011;40226;50.874;4.394;2023-09-08T09:52:59;20.15;;;9.85;;
23596;SDS011;40226;50.874;4.394;2023-09-08T09:55:32;19.10;;;9.20;;
23596;SDS011;40226;50.874;4.394;2023-09-08T09:57:58;19.27;;;9.80;;
23596;SDS011;40226;50.874;4.394;2023-09-08T10:00:26;16.40;;;8.98;;
23596;SDS011;40226;50.874;4.394;2023-09-08T10:02:53;15.60;;;9.55;;
23596;SDS011;40226;50.874;4.394;2023-09-08T10:05:20;19.90;;;10.40;;
23596;SDS011;40226;50.874;4.394;2023-09-08T10:07:46;18.85;;;9.10;;
23596;SDS011;40226;50.874;4.394;2023-09-08T10:10:13;15.15;;;8.60;;
23596;SDS011;40226;50.874;4.394;2023-09-08T10:12:40;15.13;;;8.88;;
23596;SDS011;40226;50.874;4.394;2023-09-08T10:15:10;15.27;;;9.00;;
23596;SDS011;40226;50.874;4.394;2023-09-08T10:17:36;19.13;;;9.43;;
23596;SDS011;40226;50.874;4.394;2023-09-08T10:20:03;20.27;;;9.10;;
23596;SDS011;40226;50.874;4.394;2023-09-08T10:22:36;22.38;;;9.95;;
23596;SDS011;40226;50.874;4.394;2023-09-08T10:25:04;18.15;;;9.65;;
23596;SDS011;40226;50.874;4.394;2023-09-08T10:27:31;11.88;;;8.60;;
23596;SDS011;40226;50.874;4.394;2023-09-08T10:29:59;14.15;;;9.07;;
23596;SDS011;40226;50.874;4.394;2023-09-08T10:32:26;17.00;;;9.02;;
23596;SDS011;40226;50.874;4.394;2023-09-08T10:34:53;15.75;;;8.55;;
23596;SDS011;40226;50.874;4.394;2023-09-08T10:39:51;14.68;;;6.63;;
23596;SDS011;40226;50.874;4.394;2023-09-08T10:47:23;11.30;;;6.95;;
23596;SDS011;40226;50.874;4.394;2023-09-08T10:49:51;12.98;;;6.90;;
23596;SDS011;40226;50.874;4.394;2023-09-08T10:52:20;12.63;;;7.07;;
23596;SDS011;40226;50.874;4.394;2023-09-08T10:54:48;12.63;;;7.28;;
23596;SDS011;40226;50.874;4.394;2023-09-08T10:57:15;15.32;;;6.50;;
23596;SDS011;40226;50.874;4.394;2023-09-08T10:59:50;14.55;;;6.90;;
23596;SDS011;40226;50.874;4.394;2023-09-08T11:05:01;15.13;;;7.00;;
23596;SDS011;40226;50.874;4.394;2023-09-08T11:07:29;7.78;;;5.82;;
23596;SDS011;40226;50.874;4.394;2023-09-08T11:09:56;12.90;;;5.95;;
23596;SDS011;40226;50.874;4.394;2023-09-08T11:12:21;7.90;;;6.07;;
23596;SDS011;40226;50.874;4.394;2023-09-08T11:14:49;9.45;;;5.90;;
23596;SDS011;40226;50.874;4.394;2023-09-08T11:17:15;8.35;;;5.97;;
23596;SDS011;40226;50.874;4.394;2023-09-08T11:19:50;12.25;;;6.15;;
23596;SDS011;40226;50.874;4.394;2023-09-08T11:22:15;12.07;;;6.05;;
23596;SDS011;40226;50.874;4.394;2023-09-08T11:24:42;8.27;;;5.43;;
23596;SDS011;40226;50.874;4.394;2023-09-08T11:27:08;8.93;;;5.60;;
23596;SDS011;40226;50.874;4.394;2023-09-08T11:29:34;10.40;;;4.97;;
23596;SDS011;40226;50.874;4.394;2023-09-08T11:32:01;10.68;;;5.35;;
23596;SDS011;40226;50.874;4.394;2023-09-08T11:34:29;8.55;;;4.68;;
23596;SDS011;40226;50.874;4.394;2023-09-08T11:36:54;6.45;;;4.22;;
23596;SDS011;40226;50.874;4.394;2023-09-08T11:39:24;7.75;;;4.68;;
23596;SDS011;40226;50.874;4.394;2023-09-08T11:41:50;6.97;;;4.10;;
23596;SDS011;40226;50.874;4.394;2023-09-08T11:44:20;10.30;;;4.80;;
23596;SDS011;40226;50.874;4.394;2023-09-08T11:46:46;9.88;;;5.00;;
23596;SDS011;40226;50.874;4.394;2023-09-08T11:49:13;11.48;;;4.90;;
23596;SDS011;40226;50.874;4.394;2023-09-08T11:51:39;8.13;;;4.68;;
23596;SDS011;40226;50.874;4.394;2023-09-08T11:54:04;13.40;;;5.13;;
23596;SDS011;40226;50.874;4.394;2023-09-08T11:56:30;10.65;;;5.18;;
23596;SDS011;40226;50.874;4.394;2023-09-08T11:58:57;13.55;;;5.00;;
23596;SDS011;40226;50.874;4.394;2023-09-08T12:01:23;9.88;;;4.32;;
23596;SDS011;40226;50.874;4.394;2023-09-08T12:03:55;11.70;;;4.65;;
23596;SDS011;40226;50.874;4.394;2023-09-08T12:06:23;7.85;;;4.28;;
23596;SDS011;40226;50.874;4.394;2023-09-08T12:08:50;10.80;;;4.45;;
23596;SDS011;40226;50.874;4.394;2023-09-08T12:11:16;7.43;;;3.95;;
23596;SDS011;40226;50.874;4.394;2023-09-08T12:13:42;12.82;;;4.30;;
23596;SDS011;40226;50.874;4.394;2023-09-08T12:16:17;11.25;;;4.30;;
23596;SDS011;40226;50.874;4.394;2023-09-08T12:18:48;7.00;;;4.40;;
23596;SDS011;40226;50.874;4.394;2023-09-08T12:21:14;8.73;;;4.20;;
23596;SDS011;40226;50.874;4.394;2023-09-08T12:23:47;9.32;;;3.92;;
23596;SDS011;40226;50.874;4.394;2023-09-08T12:26:16;10.10;;;3.78;;
23596;SDS011;40226;50.874;4.394;2023-09-08T12:28:42;12.35;;;4.15;;
23596;SDS011;40226;50.874;4.394;2023-09-08T12:31:08;10.77;;;4.55;;
23596;SDS011;40226;50.874;4.394;2023-09-08T12:33:35;8.95;;;4.30;;
23596;SDS011;40226;50.874;4.394;2023-09-08T12:36:17;5.90;;;4.50;;
23596;SDS011;40226;50.874;4.394;2023-09-08T12:38:47;10.80;;;4.60;;
23596;SDS011;40226;50.874;4.394;2023-09-08T12:41:14;11.30;;;4.85;;
23596;SDS011;40226;50.874;4.394;2023-09-08T12:43:40;8.45;;;4.38;;
23596;SDS011;40226;50.874;4.394;2023-09-08T12:46:05;20.10;;;5.18;;
23596;SDS011;40226;50.874;4.394;2023-09-08T12:48:31;12.05;;;5.25;;
23596;SDS011;40226;50.874;4.394;2023-09-08T12:50:56;6.32;;;4.25;;
23596;SDS011;40226;50.874;4.394;2023-09-08T12:53:22;7.35;;;4.30;;
23596;SDS011;40226;50.874;4.394;2023-09-08T12:55:48;11.35;;;4.50;;
23596;SDS011;40226;50.874;4.394;2023-09-08T12:58:14;8.68;;;4.40;;
23596;SDS011;40226;50.874;4.394;2023-09-08T13:00:40;14.52;;;4.63;;
23596;SDS011;40226;50.874;4.394;2023-09-08T13:03:06;14.27;;;5.32;;
23596;SDS011;40226;50.874;4.394;2023-09-08T13:05:31;11.32;;;4.70;;
23596;SDS011;40226;50.874;4.394;2023-09-08T13:07:57;11.88;;;4.80;;
23596;SDS011;40226;50.874;4.394;2023-09-08T13:10:23;9.13;;;4.30;;
23596;SDS011;40226;50.874;4.394;2023-09-08T13:12:49;10.43;;;4.45;;
23596;SDS011;40226;50.874;4.394;2023-09-08T13:15:14;14.73;;;4.97;;
23596;SDS011;40226;50.874;4.394;2023-09-08T13:17:40;8.93;;;4.20;;
23596;SDS011;40226;50.874;4.394;2023-09-08T13:20:06;10.55;;;4.25;;
23596;SDS011;40226;50.874;4.394;2023-09-08T13:22:32;8.20;;;4.43;;
23596;SDS011;40226;50.874;4.394;2023-09-08T13:24:59;21.60;;;4.70;;
23596;SDS011;40226;50.874;4.394;2023-09-08T13:27:24;13.15;;;4.65;;
23596;SDS011;40226;50.874;4.394;2023-09-08T13:29:50;9.55;;;4.85;;
23596;SDS011;40226;50.874;4.394;2023-09-08T13:32:18;14.60;;;5.22;;
23596;SDS011;40226;50.874;4.394;2023-09-08T13:34:44;12.25;;;4.55;;
23596;SDS011;40226;50.874;4.394;2023-09-08T13:37:09;16.95;;;5.65;;
23596;SDS011;40226;50.874;4.394;2023-09-08T13:39:36;12.15;;;4.47;;
23596;SDS011;40226;50.874;4.394;2023-09-08T13:42:01;17.95;;;4.80;;
23596;SDS011;40226;50.874;4.394;2023-09-08T13:44:27;18.85;;;4.78;;
23596;SDS011;40226;50.874;4.394;2023-09-08T13:46:53;18.92;;;5.18;;
23596;SDS011;40226;50.874;4.394;2023-09-08T13:49:20;13.93;;;4.85;;
23596;SDS011;40226;50.874;4.394;2023-09-08T13:51:46;13.25;;;5.13;;
23596;SDS011;40226;50.874;4.394;2023-09-08T13:54:12;14.57;;;4.72;;
23596;SDS011;40226;50.874;4.394;2023-09-08T13:56:38;11.55;;;4.70;;
23596;SDS011;40226;50.874;4.394;2023-09-08T13:59:05;18.38;;;4.80;;
23596;SDS011;40226;50.874;4.394;2023-09-08T14:01:32;13.35;;;5.05;;
23596;SDS011;40226;50.874;4.394;2023-09-08T14:03:59;14.75;;;4.85;;
23596;SDS011;40226;50.874;4.394;2023-09-08T14:06:25;14.80;;;5.10;;
23596;SDS011;40226;50.874;4.394;2023-09-08T14:08:51;23.20;;;6.38;;
23596;SDS011;40226;50.874;4.394;2023-09-08T14:11:17;21.42;;;5.65;;
23596;SDS011;40226;50.874;4.394;2023-09-08T14:13:43;17.13;;;6.22;;
23596;SDS011;40226;50.874;4.394;2023-09-08T14:16:09;23.50;;;6.30;;
23596;SDS011;40226;50.874;4.394;2023-09-08T14:18:36;25.17;;;5.75;;
23596;SDS011;40226;50.874;4.394;2023-09-08T14:21:02;21.83;;;5.63;;
23596;SDS011;40226;50.874;4.394;2023-09-08T14:23:29;23.65;;;6.00;;
23596;SDS011;40226;50.874;4.394;2023-09-08T14:25:54;18.05;;;5.43;;
23596;SDS011;40226;50.874;4.394;2023-09-08T14:28:20;22.63;;;6.18;;
23596;SDS011;40226;50.874;4.394;2023-09-08T14:30:46;15.82;;;5.22;;
23596;SDS011;40226;50.874;4.394;2023-09-08T14:33:12;17.73;;;5.55;;
23596;SDS011;40226;50.874;4.394;2023-09-08T14:35:41;20.55;;;5.75;;
23596;SDS011;40226;50.874;4.394;2023-09-08T14:38:08;21.75;;;5.93;;
23596;SDS011;40226;50.874;4.394;2023-09-08T14:40:34;21.52;;;5.60;;
23596;SDS011;40226;50.874;4.394;2023-09-08T14:42:59;15.82;;;5.10;;